Time;durP1;ratioP1;P1;durP2;ratioP2;P2;SDS_P1;SDS_P2;PMS_P1;PMS_P2;Temp;Humidity;BMP_temperature;BMP_pressure;BME280_temperature;BME280_humidity;BME280_pressure;Samples;Min_cycle;Max_cycle;Signal;HPM_P1;HPM_P2
2020/12/24 00:00:30;;;;;;;103.80;63.60;;;281.70;1920.00;;;;;;5072620;28;20032;-58
2020/12/24 00:02:56;;;;;;;98.78;59.08;;;281.70;1894.40;;;;;;5054302;28;20596;-58
2020/12/24 00:05:24;;;;;;;95.90;59.30;;;281.80;1894.40;;;;;;5072549;28;20051;-59
2020/12/24 00:07:49;;;;;;;98.15;59.95;;;281.90;1868.80;;;;;;5072441;28;20032;-60
2020/12/24 00:10:16;;;;;;;80.22;49.38;;;282.00;1868.80;;;;;;5072345;28;20020;-59
2020/12/24 00:12:42;;;;;;;76.18;47.47;;;282.10;1868.80;;;;;;5072420;28;20348;-59
2020/12/24 00:15:08;;;;;;;74.40;44.17;;;282.20;1843.20;;;;;;5072397;28;20081;-59
2020/12/24 00:17:34;;;;;;;70.43;43.30;;;282.40;1817.60;;;;;;5071621;28;20026;-59
2020/12/24 00:20:01;;;;;;;69.07;43.55;;;282.40;1817.60;;;;;;5072025;28;20139;-60
2020/12/24 00:22:26;;;;;;;63.25;40.35;;;282.50;1792.00;;;;;;5071961;28;20458;-60
2020/12/24 00:24:52;;;;;;;65.85;40.53;;;307.20;1817.60;;;;;;5071190;28;20037;-61
2020/12/24 00:27:18;;;;;;;61.63;40.55;;;307.40;1792.00;;;;;;5071511;28;20013;-61
2020/12/24 00:29:44;;;;;;;57.03;36.75;;;307.40;1792.00;;;;;;5071069;28;20474;-61
2020/12/24 00:32:09;;;;;;;56.45;34.60;;;307.50;1792.00;;;;;;5071281;28;20799;-61
2020/12/24 00:34:35;;;;;;;58.80;36.40;;;307.50;1766.40;;;;;;5071559;28;20458;-62
2020/12/24 00:37:01;;;;;;;60.55;36.67;;;307.60;1766.40;;;;;;5071260;28;20031;-62
2020/12/24 00:39:27;;;;;;;59.67;35.70;;;307.70;1740.80;;;;;;5071291;28;20390;-62
2020/12/24 00:41:52;;;;;;;58.40;34.15;;;307.70;1740.80;;;;;;5052511;28;20067;-63
2020/12/24 00:44:21;;;;;;;59.47;35.30;;;307.80;1740.80;;;;;;5071246;28;20056;-61
2020/12/24 00:46:47;;;;;;;56.50;33.85;;;307.80;1740.80;;;;;;5071727;28;20021;-61
2020/12/24 00:49:13;;;;;;;53.42;30.90;;;307.80;1715.20;;;;;;5071910;28;20655;-64
2020/12/24 00:51:38;;;;;;;49.67;31.77;;;307.80;1715.20;;;;;;5072036;28;20303;-62
2020/12/24 00:54:04;;;;;;;49.50;31.85;;;307.80;1715.20;;;;;;5071979;28;20091;-62
2020/12/24 00:56:30;;;;;;;46.83;31.30;;;307.90;1715.20;;;;;;5071619;28;20494;-62
2020/12/24 00:58:55;;;;;;;48.78;31.15;;;307.90;1715.20;;;;;;5072253;28;20029;-61
2020/12/24 01:01:21;;;;;;;48.85;31.98;;;307.90;1715.20;;;;;;5068330;28;20402;-59
2020/12/24 01:03:47;;;;;;;48.35;30.17;;;307.80;1715.20;;;;;;5068737;28;20017;-60
2020/12/24 01:06:12;;;;;;;55.97;32.53;;;307.80;1715.20;;;;;;5069766;28;20059;-59
2020/12/24 01:08:38;;;;;;;48.05;31.23;;;307.80;1715.20;;;;;;5070103;28;20067;-59
2020/12/24 01:11:05;;;;;;;50.33;27.75;;;307.70;1715.20;;;;;;5069961;28;20122;-60
2020/12/24 01:13:30;;;;;;;49.97;29.48;;;307.80;1715.20;;;;;;5070048;28;20466;-61
2020/12/24 01:15:56;;;;;;;43.67;28.98;;;307.70;1715.20;;;;;;5068025;28;20095;-62
2020/12/24 01:18:22;;;;;;;48.17;28.70;;;307.70;1715.20;;;;;;5067702;28;20024;-66
2020/12/24 01:20:47;;;;;;;44.88;28.77;;;307.70;1715.20;;;;;;5071909;28;20033;-64
2020/12/24 01:23:13;;;;;;;50.28;31.63;;;307.60;1740.80;;;;;;5071706;28;20479;-66
2020/12/24 01:25:39;;;;;;;47.85;32.28;;;307.60;1740.80;;;;;;5071664;28;20027;-66
2020/12/24 01:28:05;;;;;;;73.20;43.00;;;307.50;1740.80;;;;;;5072094;28;20028;-62
2020/12/24 01:30:30;;;;;;;77.90;46.65;;;307.50;1740.80;;;;;;5075687;28;20020;-63
2020/12/24 01:32:56;;;;;;;54.75;34.15;;;307.50;1740.80;;;;;;5075468;28;20384;-62
2020/12/24 01:35:22;;;;;;;50.35;33.30;;;307.50;1740.80;;;;;;5075514;28;20126;-64
2020/12/24 01:37:48;;;;;;;60.17;35.85;;;307.40;1766.40;;;;;;5075031;28;20052;-65
2020/12/24 01:40:13;;;;;;;51.60;34.38;;;307.40;1766.40;;;;;;5075203;28;20041;-61
2020/12/24 01:42:39;;;;;;;62.90;40.22;;;307.30;1766.40;;;;;;5074844;28;20029;-62
2020/12/24 01:45:05;;;;;;;65.85;40.08;;;307.30;1766.40;;;;;;5074960;28;20410;-63
2020/12/24 01:47:31;;;;;;;96.25;58.42;;;307.20;1766.40;;;;;;5073713;28;20020;-63
2020/12/24 01:49:57;;;;;;;115.30;75.03;;;282.40;1766.40;;;;;;5074820;28;20035;-61
2020/12/24 01:52:35;;;;;;;120.63;73.10;;;282.40;1792.00;;;;;;5074565;28;20466;-64
2020/12/24 01:55:05;;;;;;;76.43;44.08;;;282.30;1792.00;;;;;;5073890;28;20033;-67
2020/12/24 01:57:31;;;;;;;76.32;47.90;;;282.30;1792.00;;;;;;5072554;28;20154;-62
2020/12/24 01:59:57;;;;;;;54.35;35.22;;;282.30;1792.00;;;;;;5075009;28;20119;-63
2020/12/24 02:02:23;;;;;;;59.40;35.85;;;282.40;1766.40;;;;;;5074857;28;20151;-66
2020/12/24 02:04:49;;;;;;;56.45;33.33;;;282.40;1766.40;;;;;;5074521;28;20478;-67
2020/12/24 02:07:16;;;;;;;47.70;30.52;;;282.40;1766.40;;;;;;5074572;28;20123;-67
2020/12/24 02:09:45;;;;;;;42.72;28.80;;;282.40;1740.80;;;;;;5074170;28;20021;-62
2020/12/24 02:12:12;;;;;;;48.80;29.35;;;282.50;1740.80;;;;;;5073967;28;20017;-66
2020/12/24 02:14:37;;;;;;;44.60;26.92;;;282.50;1740.80;;;;;;5072885;28;20043;-67
2020/12/24 02:17:03;;;;;;;44.92;27.05;;;282.40;1740.80;;;;;;5074514;28;20021;-66
2020/12/24 02:19:29;;;;;;;41.60;24.65;;;282.50;1740.80;;;;;;5074744;28;20020;-63
2020/12/24 02:21:54;;;;;;;41.20;26.20;;;282.50;1715.20;;;;;;5074219;28;20104;-66
2020/12/24 02:24:20;;;;;;;45.55;25.92;;;282.40;1740.80;;;;;;5074696;28;20028;-59
2020/12/24 02:26:46;;;;;;;41.55;25.05;;;282.40;1740.80;;;;;;5074034;28;20029;-66
2020/12/24 02:29:11;;;;;;;39.05;23.48;;;282.50;1715.20;;;;;;5074192;28;20108;-65
2020/12/24 02:31:37;;;;;;;43.25;26.02;;;282.50;1715.20;;;;;;5073961;28;20043;-62
2020/12/24 02:34:02;;;;;;;43.08;25.27;;;282.50;1715.20;;;;;;5074502;28;20040;-66
2020/12/24 02:36:28;;;;;;;36.38;23.65;;;282.50;1715.20;;;;;;5074216;28;20466;-66
2020/12/24 02:38:54;;;;;;;48.33;26.42;;;282.50;1715.20;;;;;;5073845;28;20431;-60
2020/12/24 02:41:19;;;;;;;52.25;27.20;;;282.50;1715.20;;;;;;5073054;28;20041;-66
2020/12/24 02:43:47;;;;;;;46.50;26.55;;;282.50;1715.20;;;;;;5074515;28;20030;-66
2020/12/24 02:46:14;;;;;;;38.05;24.02;;;282.40;1715.20;;;;;;5073670;28;20036;-66
2020/12/24 02:48:39;;;;;;;41.33;24.95;;;282.40;1715.20;;;;;;5073912;28;20048;-67
2020/12/24 02:51:06;;;;;;;39.67;23.10;;;282.40;1715.20;;;;;;5074277;28;20462;-65
2020/12/24 02:53:32;;;;;;;38.45;24.45;;;282.40;1715.20;;;;;;5074028;28;20016;-66
2020/12/24 02:55:58;;;;;;;45.60;23.35;;;282.40;1715.20;;;;;;5073566;28;20025;-64
2020/12/24 02:58:23;;;;;;;32.50;21.67;;;282.40;1715.20;;;;;;5073882;28;20020;-66
2020/12/24 03:00:49;;;;;;;34.63;22.17;;;282.40;1715.20;;;;;;5073562;28;20086;-62
2020/12/24 03:03:16;;;;;;;33.75;21.92;;;282.40;1715.20;;;;;;5073714;28;20458;-63
2020/12/24 03:05:42;;;;;;;35.83;22.05;;;282.40;1715.20;;;;;;5073414;28;20052;-66
2020/12/24 03:08:08;;;;;;;34.92;20.80;;;282.40;1715.20;;;;;;5073764;28;20025;-62
2020/12/24 03:10:34;;;;;;;32.80;20.27;;;282.50;1689.60;;;;;;5073583;28;20037;-66
2020/12/24 03:12:59;;;;;;;33.05;19.60;;;282.40;1715.20;;;;;;5073510;28;20028;-66
2020/12/24 03:15:25;;;;;;;34.55;21.17;;;282.40;1689.60;;;;;;5073548;28;20039;-66
2020/12/24 03:17:51;;;;;;;37.67;21.70;;;282.40;1689.60;;;;;;5073193;28;20017;-66
2020/12/24 03:20:17;;;;;;;35.42;20.38;;;282.40;1689.60;;;;;;5073653;28;20062;-68
2020/12/24 03:22:43;;;;;;;29.52;19.02;;;282.40;1689.60;;;;;;5073149;28;20017;-67
2020/12/24 03:25:09;;;;;;;34.03;20.80;;;282.40;1689.60;;;;;;5073541;28;20025;-67
2020/12/24 03:27:35;;;;;;;34.05;20.02;;;282.40;1689.60;;;;;;5072925;28;20031;-66
2020/12/24 03:30:00;;;;;;;34.90;20.48;;;282.40;1689.60;;;;;;5073269;28;20056;-66
2020/12/24 03:32:26;;;;;;;32.90;20.05;;;282.50;1689.60;;;;;;5073301;28;20021;-67
2020/12/24 03:34:52;;;;;;;32.83;18.80;;;282.40;1689.60;;;;;;5073437;28;20033;-67
2020/12/24 03:37:17;;;;;;;34.22;19.42;;;282.50;1689.60;;;;;;5073992;28;20069;-67
2020/12/24 03:39:43;;;;;;;34.55;20.50;;;282.40;1689.60;;;;;;5073988;28;20105;-69
2020/12/24 03:42:09;;;;;;;31.60;19.45;;;282.40;1689.60;;;;;;5073850;28;20154;-68
2020/12/24 03:44:35;;;;;;;32.95;20.33;;;282.40;1689.60;;;;;;5074030;28;20028;-67
2020/12/24 03:47:01;;;;;;;34.42;19.63;;;282.40;1689.60;;;;;;5072953;28;20016;-67
2020/12/24 03:49:27;;;;;;;31.58;19.25;;;282.40;1689.60;;;;;;5072915;28;20449;-67
2020/12/24 03:51:52;;;;;;;36.38;20.70;;;282.40;1689.60;;;;;;5072409;28;20070;-67
2020/12/24 03:54:18;;;;;;;32.35;19.60;;;282.40;1715.20;;;;;;5073034;28;20024;-67
2020/12/24 03:56:44;;;;;;;47.20;19.95;;;282.40;1689.60;;;;;;5072579;28;20073;-63
2020/12/24 03:59:09;;;;;;;35.92;20.77;;;282.40;1689.60;;;;;;5072759;28;20028;-64
2020/12/24 04:01:35;;;;;;;37.45;21.20;;;282.30;1715.20;;;;;;5072452;28;20033;-66
2020/12/24 04:04:01;;;;;;;31.63;20.90;;;282.40;1715.20;;;;;;5073141;28;20340;-67
2020/12/24 04:06:26;;;;;;;34.17;21.50;;;282.40;1689.60;;;;;;5072353;28;20451;-62
2020/12/24 04:08:52;;;;;;;33.40;21.25;;;282.40;1715.20;;;;;;5072324;28;20395;-67
2020/12/24 04:11:19;;;;;;;32.80;20.48;;;282.30;1715.20;;;;;;5072733;28;20078;-62
2020/12/24 04:13:45;;;;;;;36.30;21.83;;;282.30;1715.20;;;;;;5072577;28;20016;-66
2020/12/24 04:16:11;;;;;;;33.45;19.65;;;282.30;1715.20;;;;;;5072434;28;20029;-67
2020/12/24 04:18:37;;;;;;;32.42;19.23;;;282.30;1715.20;;;;;;5072855;28;20146;-67
2020/12/24 04:21:02;;;;;;;33.17;19.60;;;282.20;1715.20;;;;;;5072048;28;20077;-67
2020/12/24 04:23:28;;;;;;;31.35;19.67;;;282.20;1715.20;;;;;;5072599;28;20082;-65
2020/12/24 04:25:54;;;;;;;36.67;19.40;;;282.20;1715.20;;;;;;5072827;28;20040;-66
2020/12/24 04:28:19;;;;;;;31.45;21.00;;;282.20;1715.20;;;;;;5071851;28;20027;-62
2020/12/24 04:30:45;;;;;;;30.40;19.23;;;282.10;1715.20;;;;;;5072831;28;20032;-67
2020/12/24 04:33:12;;;;;;;28.58;18.05;;;282.20;1715.20;;;;;;5072214;28;20051;-65
2020/12/24 04:35:37;;;;;;;35.17;19.17;;;282.20;1715.20;;;;;;5072570;28;20024;-61
2020/12/24 04:38:04;;;;;;;29.08;18.88;;;282.20;1715.20;;;;;;5071702;28;20028;-64
2020/12/24 04:40:30;;;;;;;31.80;18.58;;;282.30;1715.20;;;;;;5072250;28;20064;-64
2020/12/24 04:42:56;;;;;;;28.40;17.90;;;282.30;1715.20;;;;;;5072449;28;20067;-63
2020/12/24 04:45:25;;;;;;;29.15;18.17;;;282.20;1715.20;;;;;;5072225;28;20502;-64
2020/12/24 04:47:56;;;;;;;31.38;18.40;;;282.20;1715.20;;;;;;5072085;28;20467;-66
2020/12/24 04:50:25;;;;;;;28.40;17.00;;;282.20;1715.20;;;;;;5072183;28;20012;-64
2020/12/24 04:52:51;;;;;;;28.15;17.15;;;282.20;1715.20;;;;;;5053667;28;20103;-64
2020/12/24 04:55:17;;;;;;;24.15;16.48;;;282.20;1715.20;;;;;;5072467;28;20024;-61
2020/12/24 04:57:43;;;;;;;23.15;16.25;;;282.20;1715.20;;;;;;5071850;28;20020;-65
2020/12/24 05:00:10;;;;;;;22.42;14.82;;;282.20;1689.60;;;;;;5072211;28;20036;-63
2020/12/24 05:02:36;;;;;;;20.38;13.98;;;282.20;1689.60;;;;;;5072141;28;20459;-64
2020/12/24 05:05:03;;;;;;;21.83;14.80;;;282.10;1689.60;;;;;;5075954;28;20081;-61
2020/12/24 05:07:29;;;;;;;20.80;13.02;;;282.10;1689.60;;;;;;5075571;28;20028;-68
2020/12/24 05:09:55;;;;;;;22.27;13.98;;;282.20;1689.60;;;;;;5076127;28;20119;-64
2020/12/24 05:12:31;;;;;;;19.83;14.57;;;282.20;1689.60;;;;;;5075953;28;20104;-65
2020/12/24 05:14:57;;;;;;;22.52;13.80;;;282.20;1664.00;;;;;;5075562;28;20025;-67
2020/12/24 05:17:24;;;;;;;21.50;12.85;;;282.20;1664.00;;;;;;5075798;28;20177;-63
2020/12/24 05:20:01;;;;;;;20.95;13.30;;;282.20;1664.00;;;;;;5075909;28;20025;-63
2020/12/24 05:22:28;;;;;;;22.98;13.18;;;282.20;1664.00;;;;;;5075542;28;20028;-60
2020/12/24 05:25:06;;;;;;;19.95;12.75;;;282.30;1638.40;;;;;;5075480;28;20029;-60
2020/12/24 05:27:32;;;;;;;18.98;12.20;;;282.30;1664.00;;;;;;5075492;28;20374;-67
2020/12/24 05:29:58;;;;;;;16.83;12.07;;;282.30;1638.40;;;;;;5075314;28;20497;-65
2020/12/24 05:32:30;;;;;;;17.85;11.02;;;282.40;1638.40;;;;;;5075467;28;20032;-62
2020/12/24 05:35:12;;;;;;;17.70;11.02;;;282.30;1638.40;;;;;;5075321;28;20295;-63
2020/12/24 05:37:39;;;;;;;17.58;11.15;;;282.30;1638.40;;;;;;5074260;28;20016;-63
2020/12/24 05:40:23;;;;;;;13.65;9.30;;;282.40;1612.80;;;;;;5075247;28;20021;-61
2020/12/24 05:42:59;;;;;;;16.13;10.85;;;282.40;1612.80;;;;;;5075378;28;20033;-63
2020/12/24 05:45:30;;;;;;;16.20;9.68;;;282.40;1612.80;;;;;;5061280;28;20024;-60
2020/12/24 05:48:05;;;;;;;13.75;9.50;;;282.40;1612.80;;;;;;5075115;28;20025;-67
2020/12/24 05:50:30;;;;;;;14.05;9.32;;;282.40;1612.80;;;;;;5075283;28;20025;-68
2020/12/24 05:53:14;;;;;;;15.02;9.68;;;282.40;1587.20;;;;;;5074976;28;20066;-63
2020/12/24 05:55:42;;;;;;;16.50;9.63;;;282.40;1587.20;;;;;;5075574;28;20033;-63
2020/12/24 05:58:09;;;;;;;14.05;9.00;;;282.40;1587.20;;;;;;5056167;28;20028;-60
2020/12/24 06:00:40;;;;;;;17.05;10.25;;;282.40;1587.20;;;;;;5056847;28;20143;-68
2020/12/24 06:03:10;;;;;;;18.63;9.32;;;282.40;1587.20;;;;;;5074820;28;20032;-66
2020/12/24 06:05:57;;;;;;;13.15;8.20;;;282.40;1587.20;;;;;;5074883;28;20512;-66
2020/12/24 06:08:25;;;;;;;11.82;8.18;;;282.40;1587.20;;;;;;5012610;28;20030;-62
2020/12/24 06:11:05;;;;;;;12.55;8.35;;;282.40;1587.20;;;;;;5012710;28;20034;-61
2020/12/24 06:13:41;;;;;;;12.20;7.57;;;282.40;1587.20;;;;;;5012604;28;20033;-60
2020/12/24 06:16:09;;;;;;;14.10;7.82;;;282.40;1587.20;;;;;;5012695;28;20054;-65
2020/12/24 06:18:39;;;;;;;14.00;7.72;;;282.50;1561.60;;;;;;5008038;28;20101;-62
2020/12/24 06:21:20;;;;;;;10.65;7.00;;;282.50;1561.60;;;;;;5012580;28;20034;-64
2020/12/24 06:23:59;;;;;;;10.00;6.65;;;282.50;1561.60;;;;;;5012596;28;20464;-65
2020/12/24 06:26:31;;;;;;;12.18;7.85;;;282.50;1561.60;;;;;;5012539;28;20066;-64
2020/12/24 06:29:06;;;;;;;15.20;7.13;;;307.20;1587.20;;;;;;5008834;28;20102;-68
2020/12/24 06:31:34;;;;;;;12.23;6.70;;;307.20;1587.20;;;;;;5012376;28;20084;-67
2020/12/24 06:34:20;;;;;;;9.18;6.82;;;307.20;1587.20;;;;;;5012463;28;20056;-67
2020/12/24 06:36:46;;;;;;;10.65;6.07;;;307.30;1561.60;;;;;;5012242;28;20026;-66
2020/12/24 06:39:12;;;;;;;10.88;6.80;;;307.30;1561.60;;;;;;5012059;28;20173;-64
2020/12/24 06:41:39;;;;;;;10.18;6.88;;;307.30;1561.60;;;;;;5011980;28;20041;-63
2020/12/24 06:44:06;;;;;;;10.63;7.10;;;307.40;1561.60;;;;;;5012095;28;20030;-66
2020/12/24 06:46:57;;;;;;;12.52;6.72;;;307.40;1561.60;;;;;;5062904;28;20384;-61
2020/12/24 06:49:32;;;;;;;11.25;7.18;;;307.50;1561.60;;;;;;5073890;28;20024;-67
2020/12/24 06:51:58;;;;;;;8.82;6.43;;;307.50;1536.00;;;;;;5073455;28;20033;-64
2020/12/24 06:54:28;;;;;;;8.88;6.70;;;307.50;1536.00;;;;;;5073847;28;20027;-63
2020/12/24 06:57:18;;;;;;;11.38;7.38;;;307.60;1536.00;;;;;;5073644;28;20037;-65
2020/12/24 06:59:44;;;;;;;11.32;6.97;;;307.70;1536.00;;;;;;5073722;28;20024;-70
2020/12/24 07:02:10;;;;;;;8.95;6.45;;;307.70;1536.00;;;;;;5073583;28;20028;-67
2020/12/24 07:04:40;;;;;;;15.00;8.65;;;307.70;1510.40;;;;;;5073409;28;20058;-63
2020/12/24 07:07:07;;;;;;;12.52;6.78;;;307.80;1510.40;;;;;;5073472;28;20044;-64
2020/12/24 07:09:32;;;;;;;12.90;7.75;;;307.90;1510.40;;;;;;5073145;28;20024;-64
2020/12/24 07:12:01;;;;;;;14.65;8.10;;;308.00;1484.80;;;;;;5072877;28;20032;-63
2020/12/24 07:14:29;;;;;;;10.25;7.03;;;308.10;1484.80;;;;;;5073329;28;20028;-64
2020/12/24 07:16:56;;;;;;;20.15;11.10;;;332.80;1510.40;;;;;;5073145;28;20112;-65
2020/12/24 07:19:22;;;;;;;20.48;10.30;;;332.80;1510.40;;;;;;5073572;28;20019;-63
2020/12/24 07:21:50;;;;;;;22.65;10.75;;;332.80;1484.80;;;;;;5073152;28;20028;-63
2020/12/24 07:24:27;;;;;;;21.30;10.93;;;333.00;1484.80;;;;;;5073520;28;20024;-62
2020/12/24 07:26:58;;;;;;;18.65;10.05;;;333.00;1484.80;;;;;;5072079;28;20111;-63
2020/12/24 07:29:25;;;;;;;18.77;10.20;;;333.10;1484.80;;;;;;5073263;28;20016;-63
2020/12/24 07:31:52;;;;;;;14.18;8.90;;;333.10;1459.20;;;;;;5072879;28;20082;-63
2020/12/24 07:34:29;;;;;;;19.27;10.00;;;333.20;1459.20;;;;;;5073342;28;20020;-64
2020/12/24 07:36:55;;;;;;;14.70;8.57;;;333.30;1459.20;;;;;;5071036;28;20021;-66
2020/12/24 07:39:21;;;;;;;13.38;9.10;;;333.30;1459.20;;;;;;5072907;28;20042;-64
2020/12/24 07:41:47;;;;;;;15.68;9.20;;;333.40;1433.60;;;;;;5072914;28;20367;-64
2020/12/24 07:44:17;;;;;;;12.43;7.28;;;333.50;1433.60;;;;;;5072952;28;20029;-67
2020/12/24 07:46:48;;;;;;;16.92;7.45;;;333.50;1408.00;;;;;;5054761;28;20025;-64
2020/12/24 07:49:14;;;;;;;14.93;8.38;;;333.60;1408.00;;;;;;5072972;28;20120;-64
2020/12/24 07:51:41;;;;;;;14.55;8.15;;;333.60;1408.00;;;;;;5072940;28;20032;-66
2020/12/24 07:54:15;;;;;;;17.15;9.18;;;333.70;1408.00;;;;;;5072550;28;20475;-68
2020/12/24 07:56:50;;;;;;;11.13;6.95;;;358.40;1408.00;;;;;;5054870;28;20470;-63
2020/12/24 07:59:19;;;;;;;10.48;6.95;;;358.60;1382.40;;;;;;5072965;28;20043;-57
2020/12/24 08:01:45;;;;;;;12.88;8.23;;;358.50;1382.40;;;;;;5072772;28;20032;-57
2020/12/24 08:04:11;;;;;;;11.98;7.78;;;358.70;1382.40;;;;;;5071692;28;20114;-57
2020/12/24 08:06:37;;;;;;;10.70;7.20;;;358.70;1356.80;;;;;;5071258;28;20486;-56
2020/12/24 08:09:18;;;;;;;13.25;7.65;;;358.90;1356.80;;;;;;5072326;28;20020;-57
2020/12/24 08:11:58;;;;;;;15.52;8.70;;;359.00;1331.20;;;;;;5072619;28;20020;-59
2020/12/24 08:14:28;;;;;;;12.85;7.57;;;359.10;1331.20;;;;;;5054880;28;20045;-57
2020/12/24 08:17:17;;;;;;;9.77;6.35;;;359.20;1305.60;;;;;;5072242;28;20028;-58
2020/12/24 08:19:58;;;;;;;10.73;6.68;;;359.20;1305.60;;;;;;5072396;28;20025;-58
2020/12/24 08:22:39;;;;;;;9.85;6.50;;;384.00;1305.60;;;;;;5072090;28;20025;-58
2020/12/24 08:25:07;;;;;;;12.82;6.28;;;384.10;1305.60;;;;;;5072803;28;20040;-58
2020/12/24 08:27:33;;;;;;;;;;;384.20;1280.00;;;;;;5054383;28;20527;-57
2020/12/24 08:30:00;;;;;;;9.95;6.30;;;384.30;1280.00;;;;;;5072313;28;20374;-57
2020/12/24 08:32:27;;;;;;;12.25;6.55;;;384.40;1280.00;;;;;;5072320;28;20073;-57
2020/12/24 08:34:53;;;;;;;9.75;6.47;;;384.30;1280.00;;;;;;5072546;28;20027;-57
2020/12/24 08:37:30;;;;;;;11.80;6.35;;;384.50;1254.40;;;;;;5071543;28;20111;-59
2020/12/24 08:39:55;;;;;;;12.80;6.60;;;384.60;1254.40;;;;;;5072517;28;20036;-58
2020/12/24 08:42:23;;;;;;;11.65;6.15;;;384.80;1254.40;;;;;;5072244;28;20086;-58
2020/12/24 08:44:57;;;;;;;8.68;5.97;;;384.90;1254.40;;;;;;5071980;28;20074;-60
2020/12/24 08:47:22;;;;;;;14.38;6.63;;;409.60;1254.40;;;;;;5072345;28;20024;-57
2020/12/24 08:49:48;;;;;;;8.70;5.55;;;409.60;1254.40;;;;;;5072577;28;20024;-59
2020/12/24 08:52:18;;;;;;;10.38;5.72;;;409.70;1254.40;;;;;;5072371;28;20391;-58
2020/12/24 08:55:00;;;;;;;10.80;6.18;;;409.80;1254.40;;;;;;5072029;28;20017;-58
2020/12/24 08:57:27;;;;;;;11.05;5.50;;;409.80;1254.40;;;;;;5072457;28;20162;-57
2020/12/24 08:59:54;;;;;;;10.55;5.43;;;409.80;1254.40;;;;;;5071728;28;20069;-57
2020/12/24 09:02:27;;;;;;;12.43;5.80;;;409.90;1254.40;;;;;;5072103;28;20025;-57
2020/12/24 09:04:55;;;;;;;11.55;6.53;;;409.90;1254.40;;;;;;5071739;28;20375;-57
2020/12/24 09:07:31;;;;;;;11.27;6.90;;;410.00;1254.40;;;;;;5071982;28;20509;-57
2020/12/24 09:10:05;;;;;;;11.23;7.63;;;410.10;1228.80;;;;;;5071960;28;20023;-57
2020/12/24 09:12:31;;;;;;;11.68;6.05;;;410.20;1228.80;;;;;;5071949;28;20028;-57
2020/12/24 09:15:11;;;;;;;9.00;6.10;;;410.20;1228.80;;;;;;5071366;28;20103;-57
2020/12/24 09:17:51;;;;;;;12.55;5.47;;;410.20;1228.80;;;;;;5070731;28;20024;-57
2020/12/24 09:20:30;;;;;;;12.23;6.60;;;410.10;1228.80;;;;;;5071192;28;20029;-58
2020/12/24 09:22:58;;;;;;;9.18;6.25;;;410.20;1228.80;;;;;;5070997;28;20059;-57
2020/12/24 09:25:44;;;;;;;9.37;6.23;;;410.20;1228.80;;;;;;5071488;28;20367;-57
2020/12/24 09:28:20;;;;;;;9.35;5.80;;;410.30;1203.20;;;;;;5071328;28;20088;-57
2020/12/24 09:30:46;;;;;;;10.75;6.38;;;410.50;1203.20;;;;;;5070936;28;20064;-57
2020/12/24 09:33:12;;;;;;;11.50;5.90;;;410.40;1203.20;;;;;;5071484;28;20024;-57
2020/12/24 09:35:37;;;;;;;10.82;6.25;;;410.40;1203.20;;;;;;5070920;28;20073;-57
2020/12/24 09:38:03;;;;;;;10.32;6.80;;;410.40;1203.20;;;;;;5069483;28;20024;-57
2020/12/24 09:40:29;;;;;;;10.15;7.65;;;410.50;1203.20;;;;;;5071144;28;20047;-57
2020/12/24 09:42:54;;;;;;;12.30;7.63;;;410.50;1203.20;;;;;;5071087;28;20021;-57
2020/12/24 09:45:21;;;;;;;13.50;7.63;;;435.20;1203.20;;;;;;5070782;28;20024;-57
2020/12/24 09:47:47;;;;;;;11.40;6.97;;;410.50;1203.20;;;;;;5070701;28;20072;-57
2020/12/24 09:50:13;;;;;;;11.13;7.00;;;410.50;1203.20;;;;;;5073349;28;20052;-57
2020/12/24 09:52:39;;;;;;;12.00;6.90;;;435.20;1177.60;;;;;;5074218;28;20062;-57
2020/12/24 09:55:05;;;;;;;10.32;6.82;;;435.20;1203.20;;;;;;5056642;28;20390;-57
2020/12/24 09:57:35;;;;;;;12.93;6.95;;;435.20;1203.20;;;;;;5074110;28;20023;-57
2020/12/24 10:00:04;;;;;;;11.75;6.85;;;435.30;1177.60;;;;;;5071703;28;20064;-59
2020/12/24 10:02:30;;;;;;;12.20;7.20;;;435.20;1177.60;;;;;;5074285;28;20077;-57
2020/12/24 10:04:56;;;;;;;18.30;7.55;;;435.20;1177.60;;;;;;5074040;28;20096;-58
2020/12/24 10:07:22;;;;;;;12.50;7.32;;;435.40;1177.60;;;;;;5074064;28;20067;-58
2020/12/24 10:09:52;;;;;;;14.18;7.60;;;435.50;1177.60;;;;;;5074098;28;20083;-58
2020/12/24 10:12:22;;;;;;;15.63;7.53;;;435.60;1177.60;;;;;;5073995;28;20186;-58
2020/12/24 10:14:47;;;;;;;15.88;7.50;;;435.60;1177.60;;;;;;5074408;28;20051;-58
2020/12/24 10:17:14;;;;;;;16.15;7.97;;;435.80;1152.00;;;;;;5074239;28;20024;-58
2020/12/24 10:19:43;;;;;;;13.18;7.55;;;435.80;1152.00;;;;;;5073676;28;20016;-58
2020/12/24 10:22:09;;;;;;;9.50;6.50;;;435.80;1152.00;;;;;;5073998;28;20028;-58
2020/12/24 10:24:40;;;;;;;14.40;7.95;;;435.80;1152.00;;;;;;5074160;28;20028;-58
2020/12/24 10:27:09;;;;;;;13.32;6.70;;;435.80;1152.00;;;;;;5073784;28;20017;-58
2020/12/24 10:29:35;;;;;;;13.90;7.65;;;435.70;1152.00;;;;;;5055713;28;20505;-58
2020/12/24 10:32:00;;;;;;;14.30;7.38;;;435.90;1152.00;;;;;;5073301;28;20021;-58
2020/12/24 10:34:26;;;;;;;14.10;7.20;;;436.10;1126.40;;;;;;5074202;28;20020;-58
2020/12/24 10:36:52;;;;;;;10.68;7.25;;;436.10;1126.40;;;;;;5072709;28;20052;-58
2020/12/24 10:39:18;;;;;;;12.95;7.57;;;460.80;1152.00;;;;;;5073522;28;20120;-58
2020/12/24 10:41:48;;;;;;;17.38;8.40;;;461.00;1126.40;;;;;;5073458;28;20036;-58
2020/12/24 10:44:14;;;;;;;9.73;6.50;;;461.00;1126.40;;;;;;5073537;28;20020;-58
2020/12/24 10:46:40;;;;;;;11.90;7.50;;;461.10;1126.40;;;;;;5073942;28;20045;-58
2020/12/24 10:49:06;;;;;;;13.10;7.82;;;461.30;1126.40;;;;;;5073833;28;20178;-58
2020/12/24 10:51:32;;;;;;;12.27;7.88;;;461.40;1100.80;;;;;;5073682;28;20029;-57
2020/12/24 10:53:57;;;;;;;18.52;8.45;;;461.40;1126.40;;;;;;5073732;28;20109;-58
2020/12/24 10:56:23;;;;;;;11.93;8.70;;;461.50;1100.80;;;;;;5073326;28;20878;-56
2020/12/24 10:58:49;;;;;;;12.27;7.55;;;461.60;1100.80;;;;;;5073356;28;20409;-58
2020/12/24 11:01:17;;;;;;;12.25;7.88;;;461.70;1100.80;;;;;;5071958;28;20046;-57
2020/12/24 11:03:43;;;;;;;15.18;10.15;;;461.70;1075.20;;;;;;5073282;28;20070;-57
2020/12/24 11:06:17;;;;;;;13.90;8.85;;;486.40;1075.20;;;;;;5072574;28;20041;-57
2020/12/24 11:08:43;;;;;;;15.43;8.48;;;486.40;1075.20;;;;;;5073159;28;20382;-57
2020/12/24 11:11:09;;;;;;;14.82;8.55;;;486.40;1075.20;;;;;;5072463;28;20032;-57
2020/12/24 11:13:35;;;;;;;13.63;8.57;;;486.50;1075.20;;;;;;5072980;28;20531;-57
2020/12/24 11:16:00;;;;;;;17.70;8.93;;;486.50;1075.20;;;;;;5072661;28;20028;-56
2020/12/24 11:18:26;;;;;;;14.20;8.27;;;486.40;1075.20;;;;;;5072867;28;20032;-57
2020/12/24 11:20:55;;;;;;;15.45;8.93;;;486.40;1075.20;;;;;;5072731;28;20082;-57
2020/12/24 11:23:21;;;;;;;15.38;8.55;;;486.40;1075.20;;;;;;5071173;28;20028;-58
2020/12/24 11:25:47;;;;;;;14.07;8.75;;;486.50;1075.20;;;;;;5072734;28;20029;-58
2020/12/24 11:28:12;;;;;;;15.18;8.45;;;486.60;1075.20;;;;;;5072224;28;20478;-57
2020/12/24 11:30:38;;;;;;;15.70;9.32;;;486.60;1075.20;;;;;;5054651;28;20032;-57
2020/12/24 11:33:04;;;;;;;17.88;9.77;;;486.60;1075.20;;;;;;5054291;28;20543;-57
2020/12/24 11:35:29;;;;;;;16.63;9.02;;;486.70;1075.20;;;;;;5072515;28;20016;-57
2020/12/24 11:37:55;;;;;;;14.40;7.57;;;486.60;1049.60;;;;;;5071895;28;20021;-57
2020/12/24 11:40:21;;;;;;;14.57;8.77;;;486.60;1049.60;;;;;;5072268;28;20039;-57
2020/12/24 11:42:47;;;;;;;19.13;9.23;;;486.60;1049.60;;;;;;5072285;28;21586;-57
2020/12/24 11:45:12;;;;;;;15.90;8.43;;;486.70;1049.60;;;;;;5071954;28;20425;-57
2020/12/24 11:47:38;;;;;;;14.15;8.35;;;486.70;1049.60;;;;;;5071887;28;20516;-56
2020/12/24 11:50:05;;;;;;;16.08;9.02;;;486.70;1049.60;;;;;;5072054;28;20475;-57
2020/12/24 11:52:34;;;;;;;17.65;9.55;;;486.70;1049.60;;;;;;5071798;28;20372;-57
2020/12/24 11:55:00;;;;;;;19.85;8.82;;;486.50;1049.60;;;;;;5071881;28;20037;-57
2020/12/24 11:57:26;;;;;;;17.02;8.93;;;486.50;1075.20;;;;;;5071400;28;20024;-57
2020/12/24 11:59:51;;;;;;;15.80;9.38;;;486.60;1049.60;;;;;;5071746;28;20418;-56
2020/12/24 12:02:17;;;;;;;21.55;9.52;;;486.50;1075.20;;;;;;5071435;28;20037;-57
2020/12/24 12:04:43;;;;;;;16.40;8.68;;;486.40;1075.20;;;;;;5071418;28;20032;-57
2020/12/24 12:07:08;;;;;;;20.15;9.88;;;486.40;1075.20;;;;;;5071456;28;20491;-57